createdAt,value
2018-07-12T00:04:28.718Z,16.40
2018-07-12T00:09:30.865Z,16.40
2018-07-12T00:14:33.129Z,16.30
2018-07-12T00:19:35.283Z,16.40
2018-07-12T00:24:37.429Z,16.30
2018-07-12T00:29:39.583Z,16.40
2018-07-12T00:34:41.725Z,16.40
2018-07-12T00:39:43.884Z,16.40
2018-07-12T00:44:46.046Z,16.30
2018-07-12T00:49:48.208Z,16.20
2018-07-12T00:54:50.362Z,16.20
2018-07-12T00:59:52.509Z,16.20
2018-07-12T01:04:54.666Z,16.20
2018-07-12T01:09:56.813Z,16.10
2018-07-12T01:14:58.965Z,16.10
2018-07-12T01:20:01.127Z,16.00
2018-07-12T01:25:03.276Z,16.00
2018-07-12T01:30:05.424Z,16.00
2018-07-12T01:35:07.588Z,15.90
2018-07-12T01:40:09.756Z,15.90
2018-07-12T01:45:11.909Z,15.90
2018-07-12T01:50:14.077Z,15.80
2018-07-12T01:55:16.230Z,15.90
2018-07-12T02:00:18.381Z,15.90
2018-07-12T02:05:20.534Z,16.00
2018-07-12T02:10:22.713Z,16.00
2018-07-12T02:15:24.861Z,16.00
2018-07-12T02:20:27.012Z,16.00
2018-07-12T02:25:29.161Z,16.10
2018-07-12T02:30:31.313Z,16.10
2018-07-12T02:35:33.453Z,16.10
2018-07-12T02:40:35.599Z,16.10
2018-07-12T02:45:37.753Z,16.10
2018-07-12T02:50:39.898Z,16.10
2018-07-12T02:55:42.056Z,16.10
2018-07-12T03:00:44.209Z,16.10
2018-07-12T03:05:46.357Z,16.00
2018-07-12T03:10:48.514Z,16.10
2018-07-12T03:15:50.669Z,16.10
2018-07-12T03:20:52.821Z,16.10
2018-07-12T03:25:55.193Z,16.10
2018-07-12T03:30:57.349Z,16.10
2018-07-12T03:35:59.497Z,16.10
2018-07-12T03:41:01.650Z,16.10
2018-07-12T03:46:03.800Z,16.20
2018-07-12T03:51:05.949Z,16.10
2018-07-12T03:56:08.107Z,16.10
2018-07-12T04:01:10.254Z,16.10
2018-07-12T04:06:12.409Z,16.20
2018-07-12T04:11:14.694Z,16.20
2018-07-12T04:16:16.845Z,16.20
2018-07-12T04:21:19.889Z,16.20
2018-07-12T04:26:22.044Z,16.20
2018-07-12T04:31:24.189Z,16.30
2018-07-12T04:36:26.349Z,16.30
2018-07-12T04:41:28.525Z,16.40
2018-07-12T04:46:30.689Z,16.40
2018-07-12T04:51:32.846Z,16.50
2018-07-12T04:56:35.000Z,16.50
2018-07-12T05:01:37.157Z,16.60
2018-07-12T05:06:39.318Z,16.60
2018-07-12T05:11:41.473Z,16.60
2018-07-12T05:16:43.629Z,16.60
2018-07-12T05:21:45.785Z,16.60
2018-07-12T05:26:47.942Z,16.60
2018-07-12T05:31:50.104Z,16.60
2018-07-12T05:36:58.513Z,16.60
2018-07-12T05:42:01.582Z,16.70
2018-07-12T05:47:04.693Z,16.70
2018-07-12T05:52:07.767Z,16.70
2018-07-12T05:57:10.839Z,16.70
2018-07-12T06:02:22.774Z,16.70
2018-07-12T06:07:30.208Z,16.70
2018-07-12T06:12:33.282Z,16.70
2018-07-12T06:17:36.345Z,16.80
2018-07-12T06:22:39.414Z,16.80
2018-07-12T06:27:42.493Z,16.80
2018-07-12T06:32:45.710Z,16.80
2018-07-12T06:37:48.786Z,16.90
2018-07-12T06:42:51.853Z,16.90
2018-07-12T06:47:54.922Z,16.90
2018-07-12T06:52:58.063Z,16.90
2018-07-12T07:03:10.277Z,17.00
2018-07-12T07:08:13.557Z,17.00
2018-07-12T07:13:16.626Z,17.10
2018-07-12T07:18:19.693Z,17.10
2018-07-12T07:23:22.760Z,17.20
2018-07-12T07:28:25.881Z,17.30
2018-07-12T07:33:28.949Z,17.40
2018-07-12T07:38:32.025Z,17.50
2018-07-12T07:43:35.089Z,17.60
2018-07-12T07:48:39.202Z,17.90
2018-07-12T07:53:42.272Z,17.90
2018-07-12T07:58:45.349Z,18.10
2018-07-12T08:03:48.417Z,18.20
2018-07-12T08:08:51.483Z,18.20
2018-07-12T08:13:55.546Z,18.40
2018-07-12T08:18:58.613Z,18.50
2018-07-12T08:24:01.697Z,18.60
2018-07-12T08:29:04.854Z,18.70
2018-07-12T08:34:07.929Z,18.80
2018-07-12T08:39:11.002Z,19.00
2018-07-12T08:44:14.061Z,19.20
2018-07-12T08:49:17.545Z,19.20
2018-07-12T08:54:20.636Z,19.20
2018-07-12T08:59:23.725Z,19.30
2018-07-12T09:04:26.817Z,19.50
2018-07-12T09:09:29.906Z,19.60
2018-07-12T09:14:33.029Z,19.70
2018-07-12T09:19:36.114Z,19.90
2018-07-12T09:24:39.197Z,20.00
2018-07-12T09:29:42.282Z,20.10
2018-07-12T09:34:45.388Z,20.20
2018-07-12T09:39:48.478Z,20.20
2018-07-12T09:44:51.617Z,20.30
2018-07-12T09:49:54.686Z,20.40
2018-07-12T09:54:57.815Z,20.60
2018-07-12T10:00:01.030Z,20.80
2018-07-12T10:05:04.109Z,20.90
2018-07-12T10:10:07.193Z,21.00
2018-07-12T10:15:11.162Z,21.10
2018-07-12T10:20:14.234Z,21.30
2018-07-12T10:25:17.308Z,21.30
2018-07-12T10:30:20.398Z,21.40
2018-07-12T10:35:23.469Z,21.60
2018-07-12T10:40:26.561Z,21.80
2018-07-12T10:45:29.650Z,21.90
2018-07-12T10:50:32.738Z,22.20
2018-07-12T10:55:35.825Z,22.30
2018-07-12T11:00:38.918Z,22.30
2018-07-12T11:05:41.995Z,22.30
2018-07-12T11:10:45.061Z,22.30
2018-07-12T11:15:48.773Z,22.30
2018-07-12T11:20:51.794Z,22.30
2018-07-12T11:25:54.878Z,22.20
2018-07-12T11:31:02.511Z,22.20
2018-07-12T11:36:06.090Z,22.40
2018-07-12T11:41:09.473Z,22.50
2018-07-12T11:46:13.767Z,22.70
2018-07-12T11:51:16.841Z,22.80
2018-07-12T11:56:19.908Z,22.90
2018-07-12T12:01:23.823Z,23.00
2018-07-12T12:06:26.860Z,23.00
2018-07-12T12:11:29.929Z,23.00
2018-07-12T12:16:33.014Z,23.00
2018-07-12T12:21:36.089Z,23.10
2018-07-12T12:26:39.173Z,23.10
2018-07-12T12:31:42.262Z,23.10
2018-07-12T12:36:45.349Z,23.10
2018-07-12T12:41:48.462Z,23.00
2018-07-12T12:46:51.517Z,22.90
2018-07-12T12:51:54.701Z,22.80
2018-07-12T12:56:59.158Z,22.70
2018-07-12T13:02:02.229Z,22.50
2018-07-12T13:07:05.317Z,22.50
2018-07-12T13:12:08.800Z,22.40
2018-07-12T13:17:11.862Z,22.30
2018-07-12T13:22:14.970Z,21.90
2018-07-12T13:27:18.095Z,21.10
2018-07-12T13:32:21.309Z,20.70
2018-07-12T13:37:24.428Z,20.50
2018-07-12T13:42:27.513Z,20.50
2018-07-12T13:47:30.673Z,20.40
2018-07-12T13:52:33.766Z,20.50
2018-07-12T13:57:36.872Z,20.60
2018-07-12T14:02:39.985Z,20.70
2018-07-12T14:07:43.072Z,20.90
2018-07-12T14:12:46.181Z,21.00
2018-07-12T14:17:49.264Z,21.10
2018-07-12T14:22:52.313Z,21.10
2018-07-12T14:27:56.001Z,21.10
2018-07-12T14:32:59.117Z,21.20
2018-07-12T14:38:02.153Z,21.30
2018-07-12T14:43:05.293Z,21.40
2018-07-12T14:48:08.618Z,21.40
2018-07-12T14:53:11.664Z,21.50
2018-07-12T14:58:14.814Z,21.60
2018-07-12T15:03:17.877Z,21.70
2018-07-12T15:08:20.933Z,21.80
2018-07-12T15:13:24.000Z,21.90
2018-07-12T15:18:27.076Z,22.00
2018-07-12T15:23:30.248Z,22.10
2018-07-12T15:28:33.565Z,22.20
2018-07-12T15:33:36.645Z,22.20
2018-07-12T15:38:39.713Z,22.30
2018-07-12T15:43:42.766Z,22.30
2018-07-12T15:48:45.834Z,22.30
2018-07-12T15:53:48.889Z,22.20
2018-07-12T15:58:51.933Z,22.20
2018-07-12T16:04:01.674Z,22.10
2018-07-12T16:09:07.537Z,22.10
2018-07-12T16:14:10.609Z,22.00
2018-07-12T16:19:13.666Z,22.00
2018-07-12T16:24:16.724Z,21.90
2018-07-12T16:29:19.913Z,21.90
2018-07-12T16:34:22.978Z,21.80
2018-07-12T16:39:27.066Z,21.80
2018-07-12T16:44:30.109Z,21.80
2018-07-12T16:49:33.165Z,21.70
2018-07-12T16:54:36.537Z,21.70
2018-07-12T16:59:39.529Z,21.60
2018-07-12T17:04:42.578Z,21.60
2018-07-12T17:09:45.629Z,21.50
2018-07-12T17:14:48.693Z,21.40
2018-07-12T17:19:51.793Z,21.40
2018-07-12T17:24:54.841Z,21.40
2018-07-12T17:30:00.890Z,21.30
2018-07-12T17:35:04.017Z,21.30
2018-07-12T17:40:07.073Z,21.30
2018-07-12T17:45:10.123Z,21.30
2018-07-12T17:50:13.203Z,21.30
2018-07-12T17:55:16.349Z,21.20
2018-07-12T18:00:19.424Z,21.20
2018-07-12T18:05:22.679Z,21.20
2018-07-12T18:10:25.921Z,21.10
2018-07-12T18:15:29.040Z,21.10
2018-07-12T18:20:32.081Z,21.10
2018-07-12T18:25:35.162Z,21.00
2018-07-12T18:30:38.257Z,21.00
2018-07-12T18:35:41.312Z,20.90
2018-07-12T18:40:44.378Z,20.90
2018-07-12T18:45:47.424Z,20.90
2018-07-12T18:50:50.549Z,20.80
2018-07-12T18:55:53.725Z,20.80
2018-07-12T19:00:56.756Z,20.80
2018-07-12T19:05:59.850Z,20.70
2018-07-12T19:11:03.054Z,20.60
2018-07-12T19:16:06.097Z,20.50
2018-07-12T19:21:09.145Z,20.50
2018-07-12T19:26:12.250Z,20.40
2018-07-12T19:31:15.295Z,20.40
2018-07-12T19:36:18.357Z,20.30
2018-07-12T19:41:21.458Z,20.20
2018-07-12T19:46:24.521Z,20.00
2018-07-12T19:51:27.577Z,19.90
2018-07-12T19:56:30.617Z,19.80
2018-07-12T20:01:33.811Z,19.70
2018-07-12T20:06:36.858Z,19.50
2018-07-12T20:11:40.280Z,19.40
2018-07-12T20:16:43.341Z,19.30
2018-07-12T20:21:46.409Z,19.30
2018-07-12T20:26:49.474Z,19.20
2018-07-12T20:31:52.553Z,19.10
2018-07-12T20:36:55.919Z,19.00
2018-07-12T20:41:58.999Z,18.90
2018-07-12T20:47:02.078Z,18.90
2018-07-12T20:52:05.257Z,18.80
2018-07-12T20:57:08.330Z,18.70
2018-07-12T21:02:11.557Z,18.70
2018-07-12T21:07:14.677Z,18.50
2018-07-12T21:12:17.733Z,18.40
2018-07-12T21:17:20.840Z,18.30
2018-07-12T21:22:23.902Z,18.20
2018-07-12T21:27:26.969Z,18.20
2018-07-12T21:32:30.026Z,18.10
2018-07-12T21:37:33.092Z,18.10
2018-07-12T21:42:36.145Z,18.10
2018-07-12T21:47:39.197Z,18.00
2018-07-12T21:52:42.249Z,18.00
2018-07-12T21:57:45.313Z,17.90
2018-07-12T22:02:48.405Z,17.90
2018-07-12T22:08:04.835Z,17.80
2018-07-12T22:13:07.956Z,17.70
2018-07-12T22:18:11.270Z,17.70
2018-07-12T22:23:14.325Z,17.70
2018-07-12T22:28:17.441Z,17.60
2018-07-12T22:33:20.481Z,17.50
2018-07-12T22:38:23.544Z,17.50
2018-07-12T22:43:26.597Z,17.30
2018-07-12T22:48:29.869Z,17.20
2018-07-12T22:53:32.729Z,17.10
2018-07-12T22:58:35.808Z,16.90
2018-07-12T23:03:38.873Z,16.90
2018-07-12T23:08:41.945Z,16.70
2018-07-12T23:13:45.037Z,16.70
2018-07-12T23:18:48.120Z,16.60
2018-07-12T23:23:51.187Z,16.60
2018-07-12T23:28:54.260Z,16.50
2018-07-12T23:33:57.340Z,16.50
2018-07-12T23:39:00.409Z,16.40
2018-07-12T23:44:03.501Z,16.40
2018-07-12T23:49:06.557Z,16.30
2018-07-12T23:54:09.608Z,16.20
2018-07-12T23:59:12.681Z,16.00
